sensor_id;sensor_type;location;lat;lon;timestamp;temperature;humidity
46890;DHT22;32625;51.080;16.970;2023-02-01T00:00:31;2.10;99.90
46890;DHT22;32625;51.080;16.970;2023-02-01T00:03:00;2.10;99.90
46890;DHT22;32625;51.080;16.970;2023-02-01T00:05:27;2.10;99.90
46890;DHT22;32625;51.080;16.970;2023-02-01T00:07:54;2.20;99.90
46890;DHT22;32625;51.080;16.970;2023-02-01T00:10:21;2.20;99.90
46890;DHT22;32625;51.080;16.970;2023-02-01T00:12:48;2.30;99.90
46890;DHT22;32625;51.080;16.970;2023-02-01T00:15:15;2.30;99.90
46890;DHT22;32625;51.080;16.970;2023-02-01T00:17:42;2.40;99.90
46890;DHT22;32625;51.080;16.970;2023-02-01T00:20:09;2.40;99.90
46890;DHT22;32625;51.080;16.970;2023-02-01T00:22:36;2.30;99.90
46890;DHT22;32625;51.080;16.970;2023-02-01T00:25:03;2.30;99.90
46890;DHT22;32625;51.080;16.970;2023-02-01T00:27:30;2.40;99.90
46890;DHT22;32625;51.080;16.970;2023-02-01T00:29:57;2.40;99.90
46890;DHT22;32625;51.080;16.970;2023-02-01T00:32:24;2.40;99.90
46890;DHT22;32625;51.080;16.970;2023-02-01T00:34:51;2.30;99.90
46890;DHT22;32625;51.080;16.970;2023-02-01T00:37:18;2.20;99.90
46890;DHT22;32625;51.080;16.970;2023-02-01T00:39:47;2.20;99.90
46890;DHT22;32625;51.080;16.970;2023-02-01T00:42:14;2.20;99.90
46890;DHT22;32625;51.080;16.970;2023-02-01T00:44:41;2.20;99.90
46890;DHT22;32625;51.080;16.970;2023-02-01T00:47:08;2.30;99.90
46890;DHT22;32625;51.080;16.970;2023-02-01T00:49:34;2.30;99.90
46890;DHT22;32625;51.080;16.970;2023-02-01T00:52:02;2.30;99.90
46890;DHT22;32625;51.080;16.970;2023-02-01T00:54:29;2.40;99.90
46890;DHT22;32625;51.080;16.970;2023-02-01T00:56:56;2.30;99.90
46890;DHT22;32625;51.080;16.970;2023-02-01T00:59:23;2.30;99.90
46890;DHT22;32625;51.080;16.970;2023-02-01T01:01:50;2.40;99.90
46890;DHT22;32625;51.080;16.970;2023-02-01T01:04:17;2.40;99.90
46890;DHT22;32625;51.080;16.970;2023-02-01T01:06:44;2.40;99.90
46890;DHT22;32625;51.080;16.970;2023-02-01T01:09:11;2.50;99.90
46890;DHT22;32625;51.080;16.970;2023-02-01T01:11:38;2.50;99.90
46890;DHT22;32625;51.080;16.970;2023-02-01T01:14:06;2.50;99.90
46890;DHT22;32625;51.080;16.970;2023-02-01T01:16:34;2.60;99.90
46890;DHT22;32625;51.080;16.970;2023-02-01T01:19:02;2.70;99.90
46890;DHT22;32625;51.080;16.970;2023-02-01T01:21:29;2.80;99.90
46890;DHT22;32625;51.080;16.970;2023-02-01T01:23:56;2.70;99.90
46890;DHT22;32625;51.080;16.970;2023-02-01T01:26:25;2.70;99.90
46890;DHT22;32625;51.080;16.970;2023-02-01T01:28:52;2.60;99.90
46890;DHT22;32625;51.080;16.970;2023-02-01T01:31:21;2.70;99.90
46890;DHT22;32625;51.080;16.970;2023-02-01T01:33:48;2.70;99.90
46890;DHT22;32625;51.080;16.970;2023-02-01T01:36:16;2.70;99.90
46890;DHT22;32625;51.080;16.970;2023-02-01T01:38:43;2.50;99.90
46890;DHT22;32625;51.080;16.970;2023-02-01T01:41:12;2.30;99.90
46890;DHT22;32625;51.080;16.970;2023-02-01T01:46:17;2.10;99.90
46890;DHT22;32625;51.080;16.970;2023-02-01T01:48:44;2.20;99.90
46890;DHT22;32625;51.080;16.970;2023-02-01T01:51:12;2.10;99.90
46890;DHT22;32625;51.080;16.970;2023-02-01T01:53:45;2.20;99.90
46890;DHT22;32625;51.080;16.970;2023-02-01T01:56:15;2.20;99.90
46890;DHT22;32625;51.080;16.970;2023-02-01T01:58:42;2.20;99.90
46890;DHT22;32625;51.080;16.970;2023-02-01T02:01:09;2.20;99.90
46890;DHT22;32625;51.080;16.970;2023-02-01T02:03:43;2.20;99.90
46890;DHT22;32625;51.080;16.970;2023-02-01T02:06:20;2.30;99.90
46890;DHT22;32625;51.080;16.970;2023-02-01T02:08:49;2.20;99.90
46890;DHT22;32625;51.080;16.970;2023-02-01T02:11:16;2.20;99.90
46890;DHT22;32625;51.080;16.970;2023-02-01T02:13:45;2.30;99.90
46890;DHT22;32625;51.080;16.970;2023-02-01T02:34:28;2.40;99.90
46890;DHT22;32625;51.080;16.970;2023-02-01T02:39:48;2.40;99.90
46890;DHT22;32625;51.080;16.970;2023-02-01T02:42:34;2.40;99.90
46890;DHT22;32625;51.080;16.970;2023-02-01T02:45:29;2.50;99.90
46890;DHT22;32625;51.080;16.970;2023-02-01T02:48:17;2.50;99.90
46890;DHT22;32625;51.080;16.970;2023-02-01T02:50:49;2.50;99.90
46890;DHT22;32625;51.080;16.970;2023-02-01T02:53:39;2.60;99.90
46890;DHT22;32625;51.080;16.970;2023-02-01T02:56:25;2.60;99.90
46890;DHT22;32625;51.080;16.970;2023-02-01T02:59:12;2.60;99.90
46890;DHT22;32625;51.080;16.970;2023-02-01T03:01:59;2.60;99.90
46890;DHT22;32625;51.080;16.970;2023-02-01T03:04:45;2.60;99.90
46890;DHT22;32625;51.080;16.970;2023-02-01T03:07:55;2.60;99.90
46890;DHT22;32625;51.080;16.970;2023-02-01T03:10:05;2.60;99.90
46890;DHT22;32625;51.080;16.970;2023-02-01T03:12:35;2.60;99.90
46890;DHT22;32625;51.080;16.970;2023-02-01T03:15:24;2.70;99.90
46890;DHT22;32625;51.080;16.970;2023-02-01T03:17:53;2.70;99.90
46890;DHT22;32625;51.080;16.970;2023-02-01T03:20:23;2.70;99.90
46890;DHT22;32625;51.080;16.970;2023-02-01T03:22:51;2.70;99.90
46890;DHT22;32625;51.080;16.970;2023-02-01T03:25:24;2.70;99.90
46890;DHT22;32625;51.080;16.970;2023-02-01T03:27:54;2.70;99.90
46890;DHT22;32625;51.080;16.970;2023-02-01T03:30:23;2.70;99.90
46890;DHT22;32625;51.080;16.970;2023-02-01T03:32:54;2.70;99.90
46890;DHT22;32625;51.080;16.970;2023-02-01T03:35:31;2.70;99.90
46890;DHT22;32625;51.080;16.970;2023-02-01T03:38:05;2.70;99.90
46890;DHT22;32625;51.080;16.970;2023-02-01T03:40:37;2.60;99.90
46890;DHT22;32625;51.080;16.970;2023-02-01T03:43:05;2.60;99.90
46890;DHT22;32625;51.080;16.970;2023-02-01T03:45:35;2.60;99.90
46890;DHT22;32625;51.080;16.970;2023-02-01T03:48:03;2.70;99.90
46890;DHT22;32625;51.080;16.970;2023-02-01T03:50:31;2.70;99.90
46890;DHT22;32625;51.080;16.970;2023-02-01T03:53:05;2.70;99.90
46890;DHT22;32625;51.080;16.970;2023-02-01T03:55:34;2.80;99.90
46890;DHT22;32625;51.080;16.970;2023-02-01T03:58:18;2.80;99.90
46890;DHT22;32625;51.080;16.970;2023-02-01T04:00:49;2.90;99.90
46890;DHT22;32625;51.080;16.970;2023-02-01T04:03:16;2.90;99.90
46890;DHT22;32625;51.080;16.970;2023-02-01T04:05:44;2.80;99.90
46890;DHT22;32625;51.080;16.970;2023-02-01T04:08:11;2.80;99.90
46890;DHT22;32625;51.080;16.970;2023-02-01T04:10:38;2.80;99.90
46890;DHT22;32625;51.080;16.970;2023-02-01T04:13:06;2.80;99.90
46890;DHT22;32625;51.080;16.970;2023-02-01T04:15:33;2.80;99.90
46890;DHT22;32625;51.080;16.970;2023-02-01T04:18:01;2.80;99.90
46890;DHT22;32625;51.080;16.970;2023-02-01T04:20:28;2.80;99.90
46890;DHT22;32625;51.080;16.970;2023-02-01T04:22:55;2.80;99.90
46890;DHT22;32625;51.080;16.970;2023-02-01T04:25:22;2.50;99.90
46890;DHT22;32625;51.080;16.970;2023-02-01T04:27:50;2.70;99.90
46890;DHT22;32625;51.080;16.970;2023-02-01T04:30:17;2.70;99.90
46890;DHT22;32625;51.080;16.970;2023-02-01T04:32:44;2.70;99.90
46890;DHT22;32625;51.080;16.970;2023-02-01T04:35:11;2.70;99.90
46890;DHT22;32625;51.080;16.970;2023-02-01T04:37:38;2.70;99.90
46890;DHT22;32625;51.080;16.970;2023-02-01T04:40:05;2.70;99.90
46890;DHT22;32625;51.080;16.970;2023-02-01T04:42:33;2.80;99.90
46890;DHT22;32625;51.080;16.970;2023-02-01T04:44:59;2.70;99.90
46890;DHT22;32625;51.080;16.970;2023-02-01T04:47:27;2.70;99.90
46890;DHT22;32625;51.080;16.970;2023-02-01T04:49:53;2.70;99.90
46890;DHT22;32625;51.080;16.970;2023-02-01T04:52:20;2.80;99.90
46890;DHT22;32625;51.080;16.970;2023-02-01T04:54:47;2.90;99.90
46890;DHT22;32625;51.080;16.970;2023-02-01T04:57:14;2.90;99.90
46890;DHT22;32625;51.080;16.970;2023-02-01T04:59:41;3.00;99.90
46890;DHT22;32625;51.080;16.970;2023-02-01T05:02:08;3.00;99.90
46890;DHT22;32625;51.080;16.970;2023-02-01T05:04:35;3.10;99.90
46890;DHT22;32625;51.080;16.970;2023-02-01T05:07:02;3.00;99.90
46890;DHT22;32625;51.080;16.970;2023-02-01T05:09:29;3.10;99.90
46890;DHT22;32625;51.080;16.970;2023-02-01T05:11:56;3.10;99.90
46890;DHT22;32625;51.080;16.970;2023-02-01T05:14:42;3.10;99.90
46890;DHT22;32625;51.080;16.970;2023-02-01T05:17:09;3.20;99.90
46890;DHT22;32625;51.080;16.970;2023-02-01T05:19:36;3.20;99.90
46890;DHT22;32625;51.080;16.970;2023-02-01T05:22:03;3.20;99.90
46890;DHT22;32625;51.080;16.970;2023-02-01T05:24:30;3.20;99.90
46890;DHT22;32625;51.080;16.970;2023-02-01T05:26:57;3.20;99.90
46890;DHT22;32625;51.080;16.970;2023-02-01T05:29:24;3.20;99.90
46890;DHT22;32625;51.080;16.970;2023-02-01T05:31:51;3.20;99.90
46890;DHT22;32625;51.080;16.970;2023-02-01T05:34:18;3.20;99.90
46890;DHT22;32625;51.080;16.970;2023-02-01T05:36:45;3.20;99.90
46890;DHT22;32625;51.080;16.970;2023-02-01T05:39:12;3.20;99.90
46890;DHT22;32625;51.080;16.970;2023-02-01T05:41:39;3.20;99.90
46890;DHT22;32625;51.080;16.970;2023-02-01T05:44:06;3.20;99.90
46890;DHT22;32625;51.080;16.970;2023-02-01T05:46:36;3.20;99.90
46890;DHT22;32625;51.080;16.970;2023-02-01T05:49:03;3.30;99.90
46890;DHT22;32625;51.080;16.970;2023-02-01T05:51:30;3.30;99.90
46890;DHT22;32625;51.080;16.970;2023-02-01T05:53:57;3.30;99.90
46890;DHT22;32625;51.080;16.970;2023-02-01T05:56:24;3.10;99.90
46890;DHT22;32625;51.080;16.970;2023-02-01T05:58:51;3.40;99.90
46890;DHT22;32625;51.080;16.970;2023-02-01T06:01:18;3.40;99.90
46890;DHT22;32625;51.080;16.970;2023-02-01T06:03:45;3.40;99.90
46890;DHT22;32625;51.080;16.970;2023-02-01T06:06:12;3.40;99.90
46890;DHT22;32625;51.080;16.970;2023-02-01T06:08:39;3.50;99.90
46890;DHT22;32625;51.080;16.970;2023-02-01T06:11:09;3.50;99.90
46890;DHT22;32625;51.080;16.970;2023-02-01T06:13:39;3.50;99.90
46890;DHT22;32625;51.080;16.970;2023-02-01T06:16:06;3.50;99.90
46890;DHT22;32625;51.080;16.970;2023-02-01T06:18:35;3.40;99.90
46890;DHT22;32625;51.080;16.970;2023-02-01T06:21:03;3.50;99.90
46890;DHT22;32625;51.080;16.970;2023-02-01T06:23:30;3.50;99.90
46890;DHT22;32625;51.080;16.970;2023-02-01T06:25:58;3.60;99.90
46890;DHT22;32625;51.080;16.970;2023-02-01T06:28:26;3.50;99.90
46890;DHT22;32625;51.080;16.970;2023-02-01T06:30:54;3.60;99.90
46890;DHT22;32625;51.080;16.970;2023-02-01T06:33:21;3.60;99.90
46890;DHT22;32625;51.080;16.970;2023-02-01T06:35:48;3.30;99.90
46890;DHT22;32625;51.080;16.970;2023-02-01T06:38:15;3.70;99.90
46890;DHT22;32625;51.080;16.970;2023-02-01T06:40:42;3.70;99.90
46890;DHT22;32625;51.080;16.970;2023-02-01T06:43:10;3.70;99.90
46890;DHT22;32625;51.080;16.970;2023-02-01T06:45:37;3.70;99.90
46890;DHT22;32625;51.080;16.970;2023-02-01T06:48:05;3.60;99.90
46890;DHT22;32625;51.080;16.970;2023-02-01T06:50:32;3.70;99.90
46890;DHT22;32625;51.080;16.970;2023-02-01T06:52:59;3.70;99.90
46890;DHT22;32625;51.080;16.970;2023-02-01T06:55:26;3.70;99.90
46890;DHT22;32625;51.080;16.970;2023-02-01T06:57:54;3.70;99.90
46890;DHT22;32625;51.080;16.970;2023-02-01T07:00:22;3.70;99.90
46890;DHT22;32625;51.080;16.970;2023-02-01T07:02:50;3.80;99.90
46890;DHT22;32625;51.080;16.970;2023-02-01T07:05:17;3.80;99.90
46890;DHT22;32625;51.080;16.970;2023-02-01T07:07:44;3.80;99.90
46890;DHT22;32625;51.080;16.970;2023-02-01T07:10:11;3.80;99.90
46890;DHT22;32625;51.080;16.970;2023-02-01T07:12:38;3.80;99.90
46890;DHT22;32625;51.080;16.970;2023-02-01T07:15:05;3.80;99.90
46890;DHT22;32625;51.080;16.970;2023-02-01T07:17:33;3.80;99.90
46890;DHT22;32625;51.080;16.970;2023-02-01T07:20:00;3.80;99.90
46890;DHT22;32625;51.080;16.970;2023-02-01T07:22:28;3.80;99.90
46890;DHT22;32625;51.080;16.970;2023-02-01T07:24:55;3.80;99.90
46890;DHT22;32625;51.080;16.970;2023-02-01T07:27:22;3.80;99.90
46890;DHT22;32625;51.080;16.970;2023-02-01T07:29:51;3.90;99.90
46890;DHT22;32625;51.080;16.970;2023-02-01T07:32:19;3.90;99.90
46890;DHT22;32625;51.080;16.970;2023-02-01T07:34:46;3.90;99.90
46890;DHT22;32625;51.080;16.970;2023-02-01T07:37:13;3.90;99.90
46890;DHT22;32625;51.080;16.970;2023-02-01T07:39:40;3.90;99.90
46890;DHT22;32625;51.080;16.970;2023-02-01T07:42:07;3.90;99.90
46890;DHT22;32625;51.080;16.970;2023-02-01T07:44:34;3.90;99.90
46890;DHT22;32625;51.080;16.970;2023-02-01T07:47:01;3.90;99.90
46890;DHT22;32625;51.080;16.970;2023-02-01T07:49:28;3.90;99.90
46890;DHT22;32625;51.080;16.970;2023-02-01T07:51:54;3.90;99.90
46890;DHT22;32625;51.080;16.970;2023-02-01T07:54:21;4.00;99.90
46890;DHT22;32625;51.080;16.970;2023-02-01T07:56:48;4.00;99.90
46890;DHT22;32625;51.080;16.970;2023-02-01T07:59:15;4.00;99.90
46890;DHT22;32625;51.080;16.970;2023-02-01T08:01:43;4.00;99.90
46890;DHT22;32625;51.080;16.970;2023-02-01T08:04:13;4.00;99.90
46890;DHT22;32625;51.080;16.970;2023-02-01T08:06:40;4.00;99.90
46890;DHT22;32625;51.080;16.970;2023-02-01T08:09:07;4.00;99.90
46890;DHT22;32625;51.080;16.970;2023-02-01T08:11:37;4.00;99.90
46890;DHT22;32625;51.080;16.970;2023-02-01T08:14:05;4.00;99.90
46890;DHT22;32625;51.080;16.970;2023-02-01T08:16:32;3.90;99.90
46890;DHT22;32625;51.080;16.970;2023-02-01T08:19:01;4.00;99.90
46890;DHT22;32625;51.080;16.970;2023-02-01T08:21:29;4.00;99.90
46890;DHT22;32625;51.080;16.970;2023-02-01T08:24:05;4.00;99.90
46890;DHT22;32625;51.080;16.970;2023-02-01T08:26:32;4.00;99.90
46890;DHT22;32625;51.080;16.970;2023-02-01T08:29:00;4.20;99.90
46890;DHT22;32625;51.080;16.970;2023-02-01T08:31:29;4.10;99.90
46890;DHT22;32625;51.080;16.970;2023-02-01T08:33:58;4.20;99.90
46890;DHT22;32625;51.080;16.970;2023-02-01T08:36:25;4.20;99.90
46890;DHT22;32625;51.080;16.970;2023-02-01T08:38:53;4.20;99.90
46890;DHT22;32625;51.080;16.970;2023-02-01T08:41:22;4.20;99.90
46890;DHT22;32625;51.080;16.970;2023-02-01T08:43:51;4.20;99.90
46890;DHT22;32625;51.080;16.970;2023-02-01T08:46:21;4.30;99.90
46890;DHT22;32625;51.080;16.970;2023-02-01T08:48:48;4.30;99.90
46890;DHT22;32625;51.080;16.970;2023-02-01T08:51:16;4.30;99.90
46890;DHT22;32625;51.080;16.970;2023-02-01T08:53:44;4.30;99.90
46890;DHT22;32625;51.080;16.970;2023-02-01T08:56:12;4.40;99.90
46890;DHT22;32625;51.080;16.970;2023-02-01T08:58:39;4.30;99.90
46890;DHT22;32625;51.080;16.970;2023-02-01T09:01:07;4.30;99.90
46890;DHT22;32625;51.080;16.970;2023-02-01T09:03:34;4.30;99.90
46890;DHT22;32625;51.080;16.970;2023-02-01T09:06:02;4.20;99.90
46890;DHT22;32625;51.080;16.970;2023-02-01T09:08:29;4.20;99.90
46890;DHT22;32625;51.080;16.970;2023-02-01T09:11:04;4.20;99.90
46890;DHT22;32625;51.080;16.970;2023-02-01T09:13:31;4.20;99.90
46890;DHT22;32625;51.080;16.970;2023-02-01T09:15:58;4.20;99.90
46890;DHT22;32625;51.080;16.970;2023-02-01T09:18:26;4.20;99.90
46890;DHT22;32625;51.080;16.970;2023-02-01T09:20:53;4.30;99.90
46890;DHT22;32625;51.080;16.970;2023-02-01T09:23:21;4.30;99.90
46890;DHT22;32625;51.080;16.970;2023-02-01T09:25:49;4.30;99.90
46890;DHT22;32625;51.080;16.970;2023-02-01T09:28:18;3.90;99.90
46890;DHT22;32625;51.080;16.970;2023-02-01T09:30:45;4.40;99.90
46890;DHT22;32625;51.080;16.970;2023-02-01T09:33:12;4.40;99.90
46890;DHT22;32625;51.080;16.970;2023-02-01T09:35:39;4.40;99.90
46890;DHT22;32625;51.080;16.970;2023-02-01T09:38:06;4.40;99.90
46890;DHT22;32625;51.080;16.970;2023-02-01T09:40:34;4.40;99.90
46890;DHT22;32625;51.080;16.970;2023-02-01T09:48:31;4.50;99.90
46890;DHT22;32625;51.080;16.970;2023-02-01T09:50:59;4.50;99.90
46890;DHT22;32625;51.080;16.970;2023-02-01T09:55:59;4.50;99.90
46890;DHT22;32625;51.080;16.970;2023-02-01T09:58:29;4.50;99.90
46890;DHT22;32625;51.080;16.970;2023-02-01T10:00:59;4.60;99.90
46890;DHT22;32625;51.080;16.970;2023-02-01T10:03:28;4.60;99.90
46890;DHT22;32625;51.080;16.970;2023-02-01T10:13:49;4.70;99.90
46890;DHT22;32625;51.080;16.970;2023-02-01T10:19:01;4.70;99.90
46890;DHT22;32625;51.080;16.970;2023-02-01T10:26:51;4.80;99.90
46890;DHT22;32625;51.080;16.970;2023-02-01T10:29:22;4.80;99.90
46890;DHT22;32625;51.080;16.970;2023-02-01T10:31:52;4.90;99.90
46890;DHT22;32625;51.080;16.970;2023-02-01T10:34:24;5.00;99.90
46890;DHT22;32625;51.080;16.970;2023-02-01T10:36:54;5.00;99.90
46890;DHT22;32625;51.080;16.970;2023-02-01T10:39:21;5.00;99.90
46890;DHT22;32625;51.080;16.970;2023-02-01T10:41:49;5.00;99.90
46890;DHT22;32625;51.080;16.970;2023-02-01T10:44:17;5.00;99.90
46890;DHT22;32625;51.080;16.970;2023-02-01T10:46:44;5.10;99.90
46890;DHT22;32625;51.080;16.970;2023-02-01T10:49:13;5.20;99.90
46890;DHT22;32625;51.080;16.970;2023-02-01T10:51:43;5.20;99.90
46890;DHT22;32625;51.080;16.970;2023-02-01T10:54:19;5.30;99.90
46890;DHT22;32625;51.080;16.970;2023-02-01T10:56:47;5.30;99.90
46890;DHT22;32625;51.080;16.970;2023-02-01T10:59:19;5.30;99.90
46890;DHT22;32625;51.080;16.970;2023-02-01T11:01:47;5.30;99.90
46890;DHT22;32625;51.080;16.970;2023-02-01T11:04:18;5.20;99.90
46890;DHT22;32625;51.080;16.970;2023-02-01T11:06:53;5.30;99.90
46890;DHT22;32625;51.080;16.970;2023-02-01T11:09:32;5.20;99.90
46890;DHT22;32625;51.080;16.970;2023-02-01T11:11:59;5.20;99.90
46890;DHT22;32625;51.080;16.970;2023-02-01T11:16:54;5.10;99.90
46890;DHT22;32625;51.080;16.970;2023-02-01T11:19:22;5.00;99.90
46890;DHT22;32625;51.080;16.970;2023-02-01T11:21:49;5.00;99.90
46890;DHT22;32625;51.080;16.970;2023-02-01T11:24:27;4.80;99.90
46890;DHT22;32625;51.080;16.970;2023-02-01T11:26:55;4.70;99.90
46890;DHT22;32625;51.080;16.970;2023-02-01T11:29:23;4.80;99.90
46890;DHT22;32625;51.080;16.970;2023-02-01T11:31:56;4.80;99.90
46890;DHT22;32625;51.080;16.970;2023-02-01T11:34:25;4.80;99.90
46890;DHT22;32625;51.080;16.970;2023-02-01T11:36:52;4.70;99.90
46890;DHT22;32625;51.080;16.970;2023-02-01T11:39:25;4.70;99.90
46890;DHT22;32625;51.080;16.970;2023-02-01T11:42:11;4.70;99.90
46890;DHT22;32625;51.080;16.970;2023-02-01T11:44:39;4.70;99.90
46890;DHT22;32625;51.080;16.970;2023-02-01T11:47:26;4.70;99.90
46890;DHT22;32625;51.080;16.970;2023-02-01T12:42:43;4.30;99.90
46890;DHT22;32625;51.080;16.970;2023-02-01T12:45:16;4.20;99.90
46890;DHT22;32625;51.080;16.970;2023-02-01T12:47:57;4.20;99.90
46890;DHT22;32625;51.080;16.970;2023-02-01T12:50:27;4.20;99.90
46890;DHT22;32625;51.080;16.970;2023-02-01T12:52:58;4.20;99.90
46890;DHT22;32625;51.080;16.970;2023-02-01T12:55:34;4.30;99.90
46890;DHT22;32625;51.080;16.970;2023-02-01T13:01:23;4.30;99.90
46890;DHT22;32625;51.080;16.970;2023-02-01T13:03:49;4.40;99.90
46890;DHT22;32625;51.080;16.970;2023-02-01T13:06:17;4.50;99.90
46890;DHT22;32625;51.080;16.970;2023-02-01T13:11:33;4.60;99.90
46890;DHT22;32625;51.080;16.970;2023-02-01T13:16:39;4.70;99.90
46890;DHT22;32625;51.080;16.970;2023-02-01T13:19:13;4.70;99.90
46890;DHT22;32625;51.080;16.970;2023-02-01T13:21:45;4.70;99.90
46890;DHT22;32625;51.080;16.970;2023-02-01T13:26:48;4.70;99.90
46890;DHT22;32625;51.080;16.970;2023-02-01T13:29:16;4.70;99.90
46890;DHT22;32625;51.080;16.970;2023-02-01T13:37:07;5.00;99.90
46890;DHT22;32625;51.080;16.970;2023-02-01T13:42:29;4.90;99.90
46890;DHT22;32625;51.080;16.970;2023-02-01T13:45:04;4.80;99.90
46890;DHT22;32625;51.080;16.970;2023-02-01T13:47:38;4.80;99.90
46890;DHT22;32625;51.080;16.970;2023-02-01T13:50:22;4.70;99.90
46890;DHT22;32625;51.080;16.970;2023-02-01T13:52:57;4.50;99.90
46890;DHT22;32625;51.080;16.970;2023-02-01T13:55:26;4.60;99.90
46890;DHT22;32625;51.080;16.970;2023-02-01T13:58:29;4.70;99.90
46890;DHT22;32625;51.080;16.970;2023-02-01T14:00:48;4.80;99.90
46890;DHT22;32625;51.080;16.970;2023-02-01T14:03:18;4.70;99.90
46890;DHT22;32625;51.080;16.970;2023-02-01T14:08:16;4.70;99.90
46890;DHT22;32625;51.080;16.970;2023-02-01T14:10:48;4.70;99.90
46890;DHT22;32625;51.080;16.970;2023-02-01T14:13:33;4.60;99.90
46890;DHT22;32625;51.080;16.970;2023-02-01T14:28:59;4.50;99.90
46890;DHT22;32625;51.080;16.970;2023-02-01T14:31:37;4.40;99.90
46890;DHT22;32625;51.080;16.970;2023-02-01T14:36:56;4.50;99.90
46890;DHT22;32625;51.080;16.970;2023-02-01T14:41:55;4.50;99.90
46890;DHT22;32625;51.080;16.970;2023-02-01T14:44:31;4.50;99.90
46890;DHT22;32625;51.080;16.970;2023-02-01T14:47:06;4.40;99.90
46890;DHT22;32625;51.080;16.970;2023-02-01T14:52:32;4.40;99.90
46890;DHT22;32625;51.080;16.970;2023-02-01T14:55:02;4.30;99.90
46890;DHT22;32625;51.080;16.970;2023-02-01T14:57:33;4.40;99.90
46890;DHT22;32625;51.080;16.970;2023-02-01T15:00:14;4.40;99.90
46890;DHT22;32625;51.080;16.970;2023-02-01T15:02:43;4.40;99.90
46890;DHT22;32625;51.080;16.970;2023-02-01T15:05:32;4.30;99.90
46890;DHT22;32625;51.080;16.970;2023-02-01T15:08:19;4.30;99.90
46890;DHT22;32625;51.080;16.970;2023-02-01T15:10:46;4.20;99.90
46890;DHT22;32625;51.080;16.970;2023-02-01T15:13:19;4.10;99.90
46890;DHT22;32625;51.080;16.970;2023-02-01T15:18:46;4.10;99.90
46890;DHT22;32625;51.080;16.970;2023-02-01T15:21:18;4.10;99.90
46890;DHT22;32625;51.080;16.970;2023-02-01T15:24:09;4.10;99.90
46890;DHT22;32625;51.080;16.970;2023-02-01T15:26:36;4.10;99.90
46890;DHT22;32625;51.080;16.970;2023-02-01T15:29:03;4.10;99.90
46890;DHT22;32625;51.080;16.970;2023-02-01T15:31:31;4.10;99.90
46890;DHT22;32625;51.080;16.970;2023-02-01T15:33:58;4.10;99.90
46890;DHT22;32625;51.080;16.970;2023-02-01T15:36:25;4.10;99.90
46890;DHT22;32625;51.080;16.970;2023-02-01T15:42:00;4.10;99.90
46890;DHT22;32625;51.080;16.970;2023-02-01T15:44:30;4.10;99.90
46890;DHT22;32625;51.080;16.970;2023-02-01T15:46:58;4.10;99.90
46890;DHT22;32625;51.080;16.970;2023-02-01T15:49:30;4.00;99.90
46890;DHT22;32625;51.080;16.970;2023-02-01T15:52:00;3.90;99.90
46890;DHT22;32625;51.080;16.970;2023-02-01T15:54:29;3.90;99.90
46890;DHT22;32625;51.080;16.970;2023-02-01T15:56:58;3.90;99.90
46890;DHT22;32625;51.080;16.970;2023-02-01T15:59:36;3.90;99.90
46890;DHT22;32625;51.080;16.970;2023-02-01T16:02:04;3.80;99.90
46890;DHT22;32625;51.080;16.970;2023-02-01T16:04:31;3.90;99.90
46890;DHT22;32625;51.080;16.970;2023-02-01T16:07:00;3.80;99.90
46890;DHT22;32625;51.080;16.970;2023-02-01T16:09:38;3.80;99.90
46890;DHT22;32625;51.080;16.970;2023-02-01T16:14:51;3.70;99.90
46890;DHT22;32625;51.080;16.970;2023-02-01T16:17:18;3.60;99.90
46890;DHT22;32625;51.080;16.970;2023-02-01T16:19:48;3.60;99.90
46890;DHT22;32625;51.080;16.970;2023-02-01T16:22:15;3.50;99.90
46890;DHT22;32625;51.080;16.970;2023-02-01T16:24:42;3.60;99.90
46890;DHT22;32625;51.080;16.970;2023-02-01T16:27:09;3.80;99.90
46890;DHT22;32625;51.080;16.970;2023-02-01T16:29:36;3.60;99.90
46890;DHT22;32625;51.080;16.970;2023-02-01T16:32:03;3.60;99.90
46890;DHT22;32625;51.080;16.970;2023-02-01T16:34:31;3.60;99.90
46890;DHT22;32625;51.080;16.970;2023-02-01T16:36:59;3.60;99.90
46890;DHT22;32625;51.080;16.970;2023-02-01T16:39:27;3.60;99.90
46890;DHT22;32625;51.080;16.970;2023-02-01T16:41:54;3.60;99.90
46890;DHT22;32625;51.080;16.970;2023-02-01T16:44:21;3.50;99.90
46890;DHT22;32625;51.080;16.970;2023-02-01T16:46:48;3.50;99.90
46890;DHT22;32625;51.080;16.970;2023-02-01T16:49:25;3.40;99.90
46890;DHT22;32625;51.080;16.970;2023-02-01T16:51:54;3.40;99.90
46890;DHT22;32625;51.080;16.970;2023-02-01T16:54:22;3.40;99.90
46890;DHT22;32625;51.080;16.970;2023-02-01T16:56:49;3.40;99.90
46890;DHT22;32625;51.080;16.970;2023-02-01T16:59:16;3.40;99.90
46890;DHT22;32625;51.080;16.970;2023-02-01T17:01:43;3.30;99.90
46890;DHT22;32625;51.080;16.970;2023-02-01T17:04:10;3.40;99.90
46890;DHT22;32625;51.080;16.970;2023-02-01T17:06:37;3.30;99.90
46890;DHT22;32625;51.080;16.970;2023-02-01T17:09:05;3.30;99.90
46890;DHT22;32625;51.080;16.970;2023-02-01T17:11:32;3.30;99.90
46890;DHT22;32625;51.080;16.970;2023-02-01T17:14:20;3.30;99.90
46890;DHT22;32625;51.080;16.970;2023-02-01T17:16:48;3.30;99.90
46890;DHT22;32625;51.080;16.970;2023-02-01T17:19:16;3.30;99.90
46890;DHT22;32625;51.080;16.970;2023-02-01T17:21:48;3.20;99.90
46890;DHT22;32625;51.080;16.970;2023-02-01T17:24:16;3.30;99.90
46890;DHT22;32625;51.080;16.970;2023-02-01T17:26:44;3.20;99.90
46890;DHT22;32625;51.080;16.970;2023-02-01T17:29:12;3.30;99.90
46890;DHT22;32625;51.080;16.970;2023-02-01T17:31:40;3.30;99.90
46890;DHT22;32625;51.080;16.970;2023-02-01T17:34:09;3.30;99.90
46890;DHT22;32625;51.080;16.970;2023-02-01T17:36:36;3.30;99.90
46890;DHT22;32625;51.080;16.970;2023-02-01T17:39:05;3.20;99.90
46890;DHT22;32625;51.080;16.970;2023-02-01T17:41:33;3.30;99.90
46890;DHT22;32625;51.080;16.970;2023-02-01T17:44:00;3.40;99.90
46890;DHT22;32625;51.080;16.970;2023-02-01T17:46:27;3.40;99.90
46890;DHT22;32625;51.080;16.970;2023-02-01T17:48:54;3.40;99.90
46890;DHT22;32625;51.080;16.970;2023-02-01T17:51:23;3.40;99.90
46890;DHT22;32625;51.080;16.970;2023-02-01T17:53:50;3.50;99.90
46890;DHT22;32625;51.080;16.970;2023-02-01T17:56:18;3.50;99.90
46890;DHT22;32625;51.080;16.970;2023-02-01T17:58:46;3.30;99.90
46890;DHT22;32625;51.080;16.970;2023-02-01T18:01:20;3.60;99.90
46890;DHT22;32625;51.080;16.970;2023-02-01T18:03:48;3.60;99.90
46890;DHT22;32625;51.080;16.970;2023-02-01T18:06:15;3.70;99.90
46890;DHT22;32625;51.080;16.970;2023-02-01T18:08:43;3.80;99.90
46890;DHT22;32625;51.080;16.970;2023-02-01T18:11:11;3.80;99.90
46890;DHT22;32625;51.080;16.970;2023-02-01T18:13:38;3.90;99.90
46890;DHT22;32625;51.080;16.970;2023-02-01T18:16:05;3.90;99.90
46890;DHT22;32625;51.080;16.970;2023-02-01T18:18:33;3.80;99.90